sensor_id;sensor_type;location;lat;lon;timestamp;temperature;humidity
79016;DHT22;72726;44.842;37.556;2023-11-21T00:00:25;3.26;87.75
79016;DHT22;72726;44.842;37.556;2023-11-21T00:01:27;3.28;87.82
79016;DHT22;72726;44.842;37.556;2023-11-21T00:02:28;3.28;87.45
79016;DHT22;72726;44.842;37.556;2023-11-21T00:03:32;3.26;86.94
79016;DHT22;72726;44.842;37.556;2023-11-21T00:04:33;3.28;87.12
79016;DHT22;72726;44.842;37.556;2023-11-21T00:05:35;3.29;87.04
79016;DHT22;72726;44.842;37.556;2023-11-21T00:06:36;3.32;86.97
79016;DHT22;72726;44.842;37.556;2023-11-21T00:07:37;3.32;86.58
79016;DHT22;72726;44.842;37.556;2023-11-21T00:08:39;3.33;87.00
79016;DHT22;72726;44.842;37.556;2023-11-21T00:09:40;3.31;86.74
79016;DHT22;72726;44.842;37.556;2023-11-21T00:10:42;3.33;86.89
79016;DHT22;72726;44.842;37.556;2023-11-21T00:11:44;3.32;86.77
79016;DHT22;72726;44.842;37.556;2023-11-21T00:12:45;3.33;86.70
79016;DHT22;72726;44.842;37.556;2023-11-21T00:13:49;3.35;86.79
79016;DHT22;72726;44.842;37.556;2023-11-21T00:14:51;3.36;86.84
79016;DHT22;72726;44.842;37.556;2023-11-21T00:15:52;3.36;86.83
79016;DHT22;72726;44.842;37.556;2023-11-21T00:16:53;3.36;86.85
79016;DHT22;72726;44.842;37.556;2023-11-21T00:17:54;3.39;86.79
79016;DHT22;72726;44.842;37.556;2023-11-21T00:18:56;3.38;86.90
79016;DHT22;72726;44.842;37.556;2023-11-21T00:19:57;3.40;86.85
79016;DHT22;72726;44.842;37.556;2023-11-21T00:20:58;3.39;86.66
79016;DHT22;72726;44.842;37.556;2023-11-21T00:22:00;3.40;86.99
79016;DHT22;72726;44.842;37.556;2023-11-21T00:23:01;3.39;87.35
79016;DHT22;72726;44.842;37.556;2023-11-21T00:24:03;3.39;87.44
79016;DHT22;72726;44.842;37.556;2023-11-21T00:25:05;3.38;87.32
79016;DHT22;72726;44.842;37.556;2023-11-21T00:26:06;3.40;87.29
79016;DHT22;72726;44.842;37.556;2023-11-21T00:27:07;3.39;87.46
79016;DHT22;72726;44.842;37.556;2023-11-21T00:28:09;3.42;87.79
79016;DHT22;72726;44.842;37.556;2023-11-21T00:29:10;3.39;87.87
79016;DHT22;72726;44.842;37.556;2023-11-21T00:30:12;3.40;87.75
79016;DHT22;72726;44.842;37.556;2023-11-21T00:31:13;3.40;87.85
79016;DHT22;72726;44.842;37.556;2023-11-21T00:32:15;3.40;87.71
79016;DHT22;72726;44.842;37.556;2023-11-21T00:33:16;3.42;87.90
79016;DHT22;72726;44.842;37.556;2023-11-21T00:34:17;3.40;88.03
79016;DHT22;72726;44.842;37.556;2023-11-21T00:35:19;3.40;88.25
79016;DHT22;72726;44.842;37.556;2023-11-21T00:36:20;3.43;88.18
79016;DHT22;72726;44.842;37.556;2023-11-21T00:37:21;3.39;88.14
79016;DHT22;72726;44.842;37.556;2023-11-21T00:38:23;3.43;87.98
79016;DHT22;72726;44.842;37.556;2023-11-21T00:39:24;3.40;88.05
79016;DHT22;72726;44.842;37.556;2023-11-21T00:40:26;3.42;88.24
79016;DHT22;72726;44.842;37.556;2023-11-21T00:41:28;3.44;88.16
79016;DHT22;72726;44.842;37.556;2023-11-21T00:42:29;3.39;88.33
79016;DHT22;72726;44.842;37.556;2023-11-21T00:43:30;3.39;88.50
79016;DHT22;72726;44.842;37.556;2023-11-21T00:44:31;3.43;88.38
79016;DHT22;72726;44.842;37.556;2023-11-21T00:45:32;3.40;88.28
79016;DHT22;72726;44.842;37.556;2023-11-21T00:46:34;3.42;88.43
79016;DHT22;72726;44.842;37.556;2023-11-21T00:47:35;3.38;88.31
79016;DHT22;72726;44.842;37.556;2023-11-21T00:48:37;3.39;88.51
79016;DHT22;72726;44.842;37.556;2023-11-21T00:49:38;3.39;88.61
79016;DHT22;72726;44.842;37.556;2023-11-21T00:50:40;3.39;88.50
79016;DHT22;72726;44.842;37.556;2023-11-21T00:51:41;3.40;88.24
79016;DHT22;72726;44.842;37.556;2023-11-21T00:52:43;3.39;88.43
79016;DHT22;72726;44.842;37.556;2023-11-21T00:53:44;3.40;88.69
79016;DHT22;72726;44.842;37.556;2023-11-21T00:54:46;3.38;88.47
79016;DHT22;72726;44.842;37.556;2023-11-21T00:55:49;3.38;88.22
79016;DHT22;72726;44.842;37.556;2023-11-21T00:56:51;3.36;88.10
79016;DHT22;72726;44.842;37.556;2023-11-21T00:57:52;3.36;88.29
79016;DHT22;72726;44.842;37.556;2023-11-21T00:58:53;3.36;88.30
79016;DHT22;72726;44.842;37.556;2023-11-21T00:59:55;3.36;88.21
79016;DHT22;72726;44.842;37.556;2023-11-21T01:00:56;3.35;88.36
79016;DHT22;72726;44.842;37.556;2023-11-21T01:01:57;3.36;88.24
79016;DHT22;72726;44.842;37.556;2023-11-21T01:03:01;3.36;88.14
79016;DHT22;72726;44.842;37.556;2023-11-21T01:04:04;3.36;88.08
79016;DHT22;72726;44.842;37.556;2023-11-21T01:05:06;3.35;88.21
79016;DHT22;72726;44.842;37.556;2023-11-21T01:06:08;3.35;87.99
79016;DHT22;72726;44.842;37.556;2023-11-21T01:07:10;3.33;88.10
79016;DHT22;72726;44.842;37.556;2023-11-21T01:08:11;3.33;87.89
79016;DHT22;72726;44.842;37.556;2023-11-21T01:09:12;3.36;88.10
79016;DHT22;72726;44.842;37.556;2023-11-21T01:10:14;3.35;88.22
79016;DHT22;72726;44.842;37.556;2023-11-21T01:11:15;3.36;88.20
79016;DHT22;72726;44.842;37.556;2023-11-21T01:12:17;3.36;88.01
79016;DHT22;72726;44.842;37.556;2023-11-21T01:13:19;3.35;87.97
79016;DHT22;72726;44.842;37.556;2023-11-21T01:14:21;3.39;87.76
79016;DHT22;72726;44.842;37.556;2023-11-21T01:15:22;3.39;87.16
79016;DHT22;72726;44.842;37.556;2023-11-21T01:16:23;3.39;86.91
79016;DHT22;72726;44.842;37.556;2023-11-21T01:17:26;3.43;86.26
79016;DHT22;72726;44.842;37.556;2023-11-21T01:18:27;3.43;86.30
79016;DHT22;72726;44.842;37.556;2023-11-21T01:19:30;3.44;86.29
79016;DHT22;72726;44.842;37.556;2023-11-21T01:20:32;3.44;85.95
79016;DHT22;72726;44.842;37.556;2023-11-21T01:21:33;3.49;86.33
79016;DHT22;72726;44.842;37.556;2023-11-21T01:22:34;3.48;86.64
79016;DHT22;72726;44.842;37.556;2023-11-21T01:23:36;3.48;86.43
79016;DHT22;72726;44.842;37.556;2023-11-21T01:24:37;3.49;86.38
79016;DHT22;72726;44.842;37.556;2023-11-21T01:25:39;3.50;86.75
79016;DHT22;72726;44.842;37.556;2023-11-21T01:26:41;3.49;86.59
79016;DHT22;72726;44.842;37.556;2023-11-21T01:27:43;3.48;86.87
79016;DHT22;72726;44.842;37.556;2023-11-21T01:28:44;3.48;86.94
79016;DHT22;72726;44.842;37.556;2023-11-21T01:29:45;3.46;87.45
79016;DHT22;72726;44.842;37.556;2023-11-21T01:30:47;3.46;87.52
79016;DHT22;72726;44.842;37.556;2023-11-21T01:31:48;3.46;87.50
79016;DHT22;72726;44.842;37.556;2023-11-21T01:32:50;3.42;87.25
79016;DHT22;72726;44.842;37.556;2023-11-21T01:33:51;3.44;87.29
79016;DHT22;72726;44.842;37.556;2023-11-21T01:34:52;3.46;87.33
79016;DHT22;72726;44.842;37.556;2023-11-21T01:35:54;3.44;87.27
79016;DHT22;72726;44.842;37.556;2023-11-21T01:36:56;3.42;87.45
79016;DHT22;72726;44.842;37.556;2023-11-21T01:37:57;3.43;87.63
79016;DHT22;72726;44.842;37.556;2023-11-21T01:38:59;3.44;87.66
79016;DHT22;72726;44.842;37.556;2023-11-21T01:40:01;3.46;87.34
79016;DHT22;72726;44.842;37.556;2023-11-21T01:41:04;3.46;87.53
79016;DHT22;72726;44.842;37.556;2023-11-21T01:42:06;3.44;87.69
79016;DHT22;72726;44.842;37.556;2023-11-21T01:43:08;3.44;87.51
79016;DHT22;72726;44.842;37.556;2023-11-21T01:44:10;3.44;87.82
79016;DHT22;72726;44.842;37.556;2023-11-21T01:45:11;3.48;87.81
79016;DHT22;72726;44.842;37.556;2023-11-21T01:46:13;3.48;87.80
79016;DHT22;72726;44.842;37.556;2023-11-21T01:47:17;3.46;87.92
79016;DHT22;72726;44.842;37.556;2023-11-21T01:48:18;3.44;87.95
79016;DHT22;72726;44.842;37.556;2023-11-21T01:49:20;3.48;87.99
79016;DHT22;72726;44.842;37.556;2023-11-21T01:50:21;3.44;88.07
79016;DHT22;72726;44.842;37.556;2023-11-21T01:51:23;3.44;88.22
79016;DHT22;72726;44.842;37.556;2023-11-21T01:52:24;3.44;88.27
79016;DHT22;72726;44.842;37.556;2023-11-21T01:53:26;3.44;88.11
79016;DHT22;72726;44.842;37.556;2023-11-21T01:54:28;3.44;88.36
79016;DHT22;72726;44.842;37.556;2023-11-21T01:55:32;3.46;88.31
79016;DHT22;72726;44.842;37.556;2023-11-21T01:56:35;3.48;88.24
79016;DHT22;72726;44.842;37.556;2023-11-21T01:57:36;3.43;88.11
79016;DHT22;72726;44.842;37.556;2023-11-21T01:58:41;3.43;88.17
79016;DHT22;72726;44.842;37.556;2023-11-21T01:59:43;3.46;88.28
79016;DHT22;72726;44.842;37.556;2023-11-21T02:00:45;3.43;88.61
79016;DHT22;72726;44.842;37.556;2023-11-21T02:01:46;3.44;88.55
79016;DHT22;72726;44.842;37.556;2023-11-21T02:02:48;3.44;88.63
79016;DHT22;72726;44.842;37.556;2023-11-21T02:03:50;3.44;88.70
79016;DHT22;72726;44.842;37.556;2023-11-21T02:04:51;3.48;88.78
79016;DHT22;72726;44.842;37.556;2023-11-21T02:05:53;3.43;88.67
79016;DHT22;72726;44.842;37.556;2023-11-21T02:06:54;3.43;88.72
79016;DHT22;72726;44.842;37.556;2023-11-21T02:07:57;3.46;88.74
79016;DHT22;72726;44.842;37.556;2023-11-21T02:08:58;3.44;88.76
79016;DHT22;72726;44.842;37.556;2023-11-21T02:10:01;3.42;88.91
79016;DHT22;72726;44.842;37.556;2023-11-21T02:11:03;3.42;89.12
79016;DHT22;72726;44.842;37.556;2023-11-21T02:12:04;3.42;89.02
79016;DHT22;72726;44.842;37.556;2023-11-21T02:13:06;3.42;89.03
79016;DHT22;72726;44.842;37.556;2023-11-21T02:14:07;3.43;89.01
79016;DHT22;72726;44.842;37.556;2023-11-21T02:15:10;3.40;89.07
79016;DHT22;72726;44.842;37.556;2023-11-21T02:16:17;3.39;89.13
79016;DHT22;72726;44.842;37.556;2023-11-21T02:17:19;3.39;89.32
79016;DHT22;72726;44.842;37.556;2023-11-21T02:18:20;3.40;89.29
79016;DHT22;72726;44.842;37.556;2023-11-21T02:19:23;3.42;89.27
79016;DHT22;72726;44.842;37.556;2023-11-21T02:20:26;3.40;89.36
79016;DHT22;72726;44.842;37.556;2023-11-21T02:21:30;3.42;89.11
79016;DHT22;72726;44.842;37.556;2023-11-21T02:22:35;3.43;88.90
79016;DHT22;72726;44.842;37.556;2023-11-21T02:23:40;3.40;88.78
79016;DHT22;72726;44.842;37.556;2023-11-21T02:24:45;3.42;88.97
79016;DHT22;72726;44.842;37.556;2023-11-21T02:25:47;3.43;88.92
79016;DHT22;72726;44.842;37.556;2023-11-21T02:26:51;3.40;89.06
79016;DHT22;72726;44.842;37.556;2023-11-21T02:27:52;3.40;88.86
79016;DHT22;72726;44.842;37.556;2023-11-21T02:28:55;3.43;88.77
79016;DHT22;72726;44.842;37.556;2023-11-21T02:29:59;3.42;88.80
79016;DHT22;72726;44.842;37.556;2023-11-21T02:31:02;3.40;88.78
79016;DHT22;72726;44.842;37.556;2023-11-21T02:32:05;3.43;88.91
79016;DHT22;72726;44.842;37.556;2023-11-21T02:33:07;3.40;88.72
79016;DHT22;72726;44.842;37.556;2023-11-21T02:34:09;3.40;88.57
79016;DHT22;72726;44.842;37.556;2023-11-21T02:35:10;3.43;88.83
79016;DHT22;72726;44.842;37.556;2023-11-21T02:36:13;3.44;88.88
79016;DHT22;72726;44.842;37.556;2023-11-21T02:37:14;3.42;88.95
79016;DHT22;72726;44.842;37.556;2023-11-21T02:38:16;3.40;88.89
79016;DHT22;72726;44.842;37.556;2023-11-21T02:39:18;3.40;89.01
79016;DHT22;72726;44.842;37.556;2023-11-21T02:40:23;3.39;89.23
79016;DHT22;72726;44.842;37.556;2023-11-21T02:41:27;3.43;89.50
79016;DHT22;72726;44.842;37.556;2023-11-21T02:42:28;3.42;89.38
79016;DHT22;72726;44.842;37.556;2023-11-21T02:43:30;3.39;89.55
79016;DHT22;72726;44.842;37.556;2023-11-21T02:44:31;3.42;89.60
79016;DHT22;72726;44.842;37.556;2023-11-21T02:45:32;3.42;89.41
79016;DHT22;72726;44.842;37.556;2023-11-21T02:46:34;3.43;89.49
79016;DHT22;72726;44.842;37.556;2023-11-21T02:47:35;3.40;89.54
79016;DHT22;72726;44.842;37.556;2023-11-21T02:48:36;3.43;89.38
79016;DHT22;72726;44.842;37.556;2023-11-21T02:49:38;3.43;89.41
79016;DHT22;72726;44.842;37.556;2023-11-21T02:50:39;3.48;89.33
79016;DHT22;72726;44.842;37.556;2023-11-21T02:51:40;3.44;89.25
79016;DHT22;72726;44.842;37.556;2023-11-21T02:52:41;3.44;89.28
79016;DHT22;72726;44.842;37.556;2023-11-21T02:53:43;3.49;89.46
79016;DHT22;72726;44.842;37.556;2023-11-21T02:54:44;3.44;89.38
79016;DHT22;72726;44.842;37.556;2023-11-21T02:55:45;3.48;89.21
79016;DHT22;72726;44.842;37.556;2023-11-21T02:56:46;3.44;89.20
79016;DHT22;72726;44.842;37.556;2023-11-21T02:57:48;3.43;89.27
79016;DHT22;72726;44.842;37.556;2023-11-21T02:58:49;3.46;89.30
79016;DHT22;72726;44.842;37.556;2023-11-21T02:59:50;3.46;89.39
79016;DHT22;72726;44.842;37.556;2023-11-21T03:00:51;3.44;89.49
79016;DHT22;72726;44.842;37.556;2023-11-21T03:01:53;3.44;89.51
79016;DHT22;72726;44.842;37.556;2023-11-21T03:02:55;3.44;89.50
79016;DHT22;72726;44.842;37.556;2023-11-21T03:03:57;3.48;89.39
79016;DHT22;72726;44.842;37.556;2023-11-21T03:04:58;3.48;89.24
79016;DHT22;72726;44.842;37.556;2023-11-21T03:05:59;3.46;89.12
79016;DHT22;72726;44.842;37.556;2023-11-21T03:07:01;3.44;89.09
79016;DHT22;72726;44.842;37.556;2023-11-21T03:08:02;3.44;89.04
79016;DHT22;72726;44.842;37.556;2023-11-21T03:09:03;3.46;89.34
79016;DHT22;72726;44.842;37.556;2023-11-21T03:10:06;3.46;89.37
79016;DHT22;72726;44.842;37.556;2023-11-21T03:11:07;3.44;89.23
79016;DHT22;72726;44.842;37.556;2023-11-21T03:12:10;3.44;89.30
79016;DHT22;72726;44.842;37.556;2023-11-21T03:13:12;3.43;89.36
79016;DHT22;72726;44.842;37.556;2023-11-21T03:14:14;3.46;89.34
79016;DHT22;72726;44.842;37.556;2023-11-21T03:15:15;3.44;89.46
79016;DHT22;72726;44.842;37.556;2023-11-21T03:16:18;3.46;89.31
79016;DHT22;72726;44.842;37.556;2023-11-21T03:17:20;3.43;89.24
79016;DHT22;72726;44.842;37.556;2023-11-21T03:18:22;3.42;89.47
79016;DHT22;72726;44.842;37.556;2023-11-21T03:19:23;3.43;89.48
79016;DHT22;72726;44.842;37.556;2023-11-21T03:20:25;3.43;89.57
79016;DHT22;72726;44.842;37.556;2023-11-21T03:21:26;3.43;89.65
79016;DHT22;72726;44.842;37.556;2023-11-21T03:22:27;3.43;89.56
79016;DHT22;72726;44.842;37.556;2023-11-21T03:23:29;3.46;89.55
79016;DHT22;72726;44.842;37.556;2023-11-21T03:24:31;3.43;89.43
79016;DHT22;72726;44.842;37.556;2023-11-21T03:25:32;3.44;89.40
79016;DHT22;72726;44.842;37.556;2023-11-21T03:26:34;3.44;89.46
79016;DHT22;72726;44.842;37.556;2023-11-21T03:27:35;3.46;89.39
79016;DHT22;72726;44.842;37.556;2023-11-21T03:28:36;3.44;89.19
79016;DHT22;72726;44.842;37.556;2023-11-21T03:29:37;3.43;89.01
79016;DHT22;72726;44.842;37.556;2023-11-21T03:30:40;3.46;88.97
79016;DHT22;72726;44.842;37.556;2023-11-21T03:31:41;3.44;88.86
79016;DHT22;72726;44.842;37.556;2023-11-21T03:32:42;3.46;88.86
79016;DHT22;72726;44.842;37.556;2023-11-21T03:33:44;3.46;88.97
79016;DHT22;72726;44.842;37.556;2023-11-21T03:34:56;3.46;89.07
79016;DHT22;72726;44.842;37.556;2023-11-21T03:35:58;3.46;88.98
79016;DHT22;72726;44.842;37.556;2023-11-21T03:36:59;3.46;89.13
79016;DHT22;72726;44.842;37.556;2023-11-21T03:38:01;3.46;88.85
79016;DHT22;72726;44.842;37.556;2023-11-21T03:39:04;3.46;88.74
79016;DHT22;72726;44.842;37.556;2023-11-21T03:40:07;3.48;88.81
79016;DHT22;72726;44.842;37.556;2023-11-21T03:41:09;3.46;88.60
79016;DHT22;72726;44.842;37.556;2023-11-21T03:42:11;3.46;88.83
79016;DHT22;72726;44.842;37.556;2023-11-21T03:43:13;3.48;88.42
79016;DHT22;72726;44.842;37.556;2023-11-21T03:44:14;3.46;88.47
79016;DHT22;72726;44.842;37.556;2023-11-21T03:45:16;3.48;88.62
79016;DHT22;72726;44.842;37.556;2023-11-21T03:46:17;3.49;88.30
79016;DHT22;72726;44.842;37.556;2023-11-21T03:47:19;3.48;88.20
79016;DHT22;72726;44.842;37.556;2023-11-21T03:48:20;3.46;88.48
79016;DHT22;72726;44.842;37.556;2023-11-21T03:49:21;3.44;88.50
79016;DHT22;72726;44.842;37.556;2023-11-21T03:50:23;3.44;88.38
79016;DHT22;72726;44.842;37.556;2023-11-21T03:51:24;3.46;88.41
79016;DHT22;72726;44.842;37.556;2023-11-21T03:52:25;3.44;88.43
79016;DHT22;72726;44.842;37.556;2023-11-21T03:53:28;3.46;88.09
79016;DHT22;72726;44.842;37.556;2023-11-21T03:54:29;3.46;88.13
79016;DHT22;72726;44.842;37.556;2023-11-21T03:55:30;3.48;88.12
79016;DHT22;72726;44.842;37.556;2023-11-21T03:56:32;3.52;88.39
79016;DHT22;72726;44.842;37.556;2023-11-21T03:57:35;3.50;88.34
79016;DHT22;72726;44.842;37.556;2023-11-21T03:58:36;3.50;88.07
79016;DHT22;72726;44.842;37.556;2023-11-21T03:59:41;3.50;88.08
79016;DHT22;72726;44.842;37.556;2023-11-21T04:00:42;3.52;87.88
79016;DHT22;72726;44.842;37.556;2023-11-21T04:01:43;3.48;87.82
79016;DHT22;72726;44.842;37.556;2023-11-21T04:02:45;3.50;88.02
79016;DHT22;72726;44.842;37.556;2023-11-21T04:03:46;3.52;88.01
79016;DHT22;72726;44.842;37.556;2023-11-21T04:04:48;3.50;87.98
79016;DHT22;72726;44.842;37.556;2023-11-21T04:05:49;3.53;88.15
79016;DHT22;72726;44.842;37.556;2023-11-21T04:06:50;3.53;88.03
79016;DHT22;72726;44.842;37.556;2023-11-21T04:07:52;3.55;88.02
79016;DHT22;72726;44.842;37.556;2023-11-21T04:08:54;3.55;87.84
79016;DHT22;72726;44.842;37.556;2023-11-21T04:09:55;3.56;87.68
79016;DHT22;72726;44.842;37.556;2023-11-21T04:10:56;3.56;87.80
79016;DHT22;72726;44.842;37.556;2023-11-21T04:12:02;3.56;87.52
79016;DHT22;72726;44.842;37.556;2023-11-21T04:13:04;3.58;87.75
79016;DHT22;72726;44.842;37.556;2023-11-21T04:14:06;3.58;87.82
79016;DHT22;72726;44.842;37.556;2023-11-21T04:15:08;3.59;87.86
79016;DHT22;72726;44.842;37.556;2023-11-21T04:16:09;3.63;87.79
79016;DHT22;72726;44.842;37.556;2023-11-21T04:17:11;3.59;87.66
79016;DHT22;72726;44.842;37.556;2023-11-21T04:18:12;3.60;87.81
79016;DHT22;72726;44.842;37.556;2023-11-21T04:19:13;3.59;87.81
79016;DHT22;72726;44.842;37.556;2023-11-21T04:20:18;3.62;87.70
79016;DHT22;72726;44.842;37.556;2023-11-21T04:21:19;3.62;87.82
79016;DHT22;72726;44.842;37.556;2023-11-21T04:22:20;3.63;87.63
79016;DHT22;72726;44.842;37.556;2023-11-21T04:23:21;3.60;87.74
79016;DHT22;72726;44.842;37.556;2023-11-21T04:24:23;3.60;87.58
79016;DHT22;72726;44.842;37.556;2023-11-21T04:25:24;3.62;87.74
79016;DHT22;72726;44.842;37.556;2023-11-21T04:26:25;3.63;87.82
79016;DHT22;72726;44.842;37.556;2023-11-21T04:27:26;3.60;87.62
79016;DHT22;72726;44.842;37.556;2023-11-21T04:28:28;3.60;87.72
79016;DHT22;72726;44.842;37.556;2023-11-21T04:29:29;3.60;87.92
79016;DHT22;72726;44.842;37.556;2023-11-21T04:30:31;3.60;87.89
79016;DHT22;72726;44.842;37.556;2023-11-21T04:31:33;3.59;87.86
79016;DHT22;72726;44.842;37.556;2023-11-21T04:32:34;3.63;87.97
79016;DHT22;72726;44.842;37.556;2023-11-21T04:33:36;3.62;88.02
79016;DHT22;72726;44.842;37.556;2023-11-21T04:34:39;3.60;88.08
79016;DHT22;72726;44.842;37.556;2023-11-21T04:35:41;3.59;88.13
79016;DHT22;72726;44.842;37.556;2023-11-21T04:36:42;3.59;88.02
79016;DHT22;72726;44.842;37.556;2023-11-21T04:37:44;3.62;88.15
79016;DHT22;72726;44.842;37.556;2023-11-21T04:38:45;3.62;88.15
79016;DHT22;72726;44.842;37.556;2023-11-21T04:39:46;3.59;88.25
79016;DHT22;72726;44.842;37.556;2023-11-21T04:40:48;3.58;88.15
79016;DHT22;72726;44.842;37.556;2023-11-21T04:41:50;3.60;88.07
79016;DHT22;72726;44.842;37.556;2023-11-21T04:42:51;3.58;88.14
79016;DHT22;72726;44.842;37.556;2023-11-21T04:43:52;3.60;88.19
79016;DHT22;72726;44.842;37.556;2023-11-21T04:44:53;3.59;88.10
79016;DHT22;72726;44.842;37.556;2023-11-21T04:45:55;3.60;88.11
79016;DHT22;72726;44.842;37.556;2023-11-21T04:46:57;3.60;88.21
79016;DHT22;72726;44.842;37.556;2023-11-21T04:47:58;3.60;88.26
79016;DHT22;72726;44.842;37.556;2023-11-21T04:49:02;3.62;88.41
79016;DHT22;72726;44.842;37.556;2023-11-21T04:50:04;3.60;88.19
79016;DHT22;72726;44.842;37.556;2023-11-21T04:51:07;3.59;88.33
79016;DHT22;72726;44.842;37.556;2023-11-21T04:52:08;3.60;88.16
79016;DHT22;72726;44.842;37.556;2023-11-21T04:53:10;3.58;88.08
79016;DHT22;72726;44.842;37.556;2023-11-21T04:54:19;3.58;88.06
79016;DHT22;72726;44.842;37.556;2023-11-21T04:55:20;3.60;88.02
79016;DHT22;72726;44.842;37.556;2023-11-21T04:56:22;3.59;88.02
79016;DHT22;72726;44.842;37.556;2023-11-21T04:57:23;3.58;88.00
79016;DHT22;72726;44.842;37.556;2023-11-21T04:58:30;3.58;88.16
79016;DHT22;72726;44.842;37.556;2023-11-21T04:59:31;3.58;88.21
79016;DHT22;72726;44.842;37.556;2023-11-21T05:00:32;3.58;88.15
79016;DHT22;72726;44.842;37.556;2023-11-21T05:01:33;3.59;88.30
79016;DHT22;72726;44.842;37.556;2023-11-21T05:02:35;3.59;88.34
79016;DHT22;72726;44.842;37.556;2023-11-21T05:03:36;3.62;88.29
79016;DHT22;72726;44.842;37.556;2023-11-21T05:04:39;3.62;88.12
79016;DHT22;72726;44.842;37.556;2023-11-21T05:05:41;3.62;88.05
79016;DHT22;72726;44.842;37.556;2023-11-21T05:06:42;3.60;88.21
79016;DHT22;72726;44.842;37.556;2023-11-21T05:07:44;3.60;88.25
79016;DHT22;72726;44.842;37.556;2023-11-21T05:08:45;3.62;88.28
79016;DHT22;72726;44.842;37.556;2023-11-21T05:09:47;3.64;88.28
79016;DHT22;72726;44.842;37.556;2023-11-21T05:10:48;3.62;88.18
79016;DHT22;72726;44.842;37.556;2023-11-21T05:11:53;3.60;88.16
79016;DHT22;72726;44.842;37.556;2023-11-21T05:12:55;3.63;88.47
79016;DHT22;72726;44.842;37.556;2023-11-21T05:13:56;3.64;88.42
79016;DHT22;72726;44.842;37.556;2023-11-21T05:14:59;3.64;88.42
79016;DHT22;72726;44.842;37.556;2023-11-21T05:16:00;3.67;88.29
79016;DHT22;72726;44.842;37.556;2023-11-21T05:17:05;3.64;88.22
79016;DHT22;72726;44.842;37.556;2023-11-21T05:18:06;3.64;87.97
79016;DHT22;72726;44.842;37.556;2023-11-21T05:19:08;3.64;88.11
79016;DHT22;72726;44.842;37.556;2023-11-21T05:20:14;3.67;88.13
79016;DHT22;72726;44.842;37.556;2023-11-21T05:21:18;3.64;88.08
79016;DHT22;72726;44.842;37.556;2023-11-21T05:22:21;3.66;88.11
79016;DHT22;72726;44.842;37.556;2023-11-21T05:23:23;3.66;88.19
79016;DHT22;72726;44.842;37.556;2023-11-21T05:24:24;3.66;88.38
79016;DHT22;72726;44.842;37.556;2023-11-21T05:25:25;3.67;88.54
79016;DHT22;72726;44.842;37.556;2023-11-21T05:26:27;3.67;88.56
79016;DHT22;72726;44.842;37.556;2023-11-21T05:27:29;3.67;88.26
79016;DHT22;72726;44.842;37.556;2023-11-21T05:28:31;3.67;88.18
79016;DHT22;72726;44.842;37.556;2023-11-21T05:29:32;3.69;88.35
79016;DHT22;72726;44.842;37.556;2023-11-21T05:30:33;3.67;88.31
79016;DHT22;72726;44.842;37.556;2023-11-21T05:31:35;3.67;88.17
79016;DHT22;72726;44.842;37.556;2023-11-21T05:32:36;3.66;88.37
79016;DHT22;72726;44.842;37.556;2023-11-21T05:33:37;3.67;88.56
79016;DHT22;72726;44.842;37.556;2023-11-21T05:34:38;3.70;88.69
79016;DHT22;72726;44.842;37.556;2023-11-21T05:35:40;3.69;88.38
79016;DHT22;72726;44.842;37.556;2023-11-21T05:36:43;3.67;88.07
79016;DHT22;72726;44.842;37.556;2023-11-21T05:37:46;3.70;88.26
79016;DHT22;72726;44.842;37.556;2023-11-21T05:38:47;3.69;88.31
79016;DHT22;72726;44.842;37.556;2023-11-21T05:39:49;3.69;88.32
79016;DHT22;72726;44.842;37.556;2023-11-21T05:40:50;3.69;88.39
79016;DHT22;72726;44.842;37.556;2023-11-21T05:41:51;3.70;88.34
79016;DHT22;72726;44.842;37.556;2023-11-21T05:42:53;3.69;88.32
79016;DHT22;72726;44.842;37.556;2023-11-21T05:43:54;3.64;88.27
79016;DHT22;72726;44.842;37.556;2023-11-21T05:44:55;3.69;88.48
79016;DHT22;72726;44.842;37.556;2023-11-21T05:46:00;3.66;88.39
79016;DHT22;72726;44.842;37.556;2023-11-21T05:47:01;3.70;88.55
79016;DHT22;72726;44.842;37.556;2023-11-21T05:48:03;3.67;88.60
79016;DHT22;72726;44.842;37.556;2023-11-21T05:49:05;3.67;88.50
79016;DHT22;72726;44.842;37.556;2023-11-21T05:50:08;3.70;88.55
79016;DHT22;72726;44.842;37.556;2023-11-21T05:51:15;3.69;88.53
79016;DHT22;72726;44.842;37.556;2023-11-21T05:52:16;3.70;88.44
79016;DHT22;72726;44.842;37.556;2023-11-21T05:53:18;3.70;88.07
79016;DHT22;72726;44.842;37.556;2023-11-21T05:54:19;3.70;88.15
79016;DHT22;72726;44.842;37.556;2023-11-21T05:55:23;3.71;88.23
79016;DHT22;72726;44.842;37.556;2023-11-21T05:56:26;3.71;88.24
79016;DHT22;72726;44.842;37.556;2023-11-21T05:57:27;3.77;88.20
79016;DHT22;72726;44.842;37.556;2023-11-21T05:58:29;3.76;88.12
79016;DHT22;72726;44.842;37.556;2023-11-21T05:59:30;3.77;87.89
79016;DHT22;72726;44.842;37.556;2023-11-21T06:00:32;3.74;87.91
79016;DHT22;72726;44.842;37.556;2023-11-21T06:01:34;3.76;87.84
79016;DHT22;72726;44.842;37.556;2023-11-21T06:02:35;3.76;87.94
79016;DHT22;72726;44.842;37.556;2023-11-21T06:03:37;3.77;87.95
79016;DHT22;72726;44.842;37.556;2023-11-21T06:04:38;3.78;87.96
79016;DHT22;72726;44.842;37.556;2023-11-21T06:05:39;3.78;87.69
79016;DHT22;72726;44.842;37.556;2023-11-21T06:06:41;3.77;87.76
79016;DHT22;72726;44.842;37.556;2023-11-21T06:07:42;3.77;87.52
79016;DHT22;72726;44.842;37.556;2023-11-21T06:08:43;3.80;87.59
79016;DHT22;72726;44.842;37.556;2023-11-21T06:09:45;3.81;87.54
79016;DHT22;72726;44.842;37.556;2023-11-21T06:10:46;3.81;87.46
79016;DHT22;72726;44.842;37.556;2023-11-21T06:11:50;3.81;87.44
79016;DHT22;72726;44.842;37.556;2023-11-21T06:12:51;3.81;87.61
79016;DHT22;72726;44.842;37.556;2023-11-21T06:13:53;3.81;87.22
79016;DHT22;72726;44.842;37.556;2023-11-21T06:14:54;3.83;87.32
79016;DHT22;72726;44.842;37.556;2023-11-21T06:15:56;3.84;87.33
79016;DHT22;72726;44.842;37.556;2023-11-21T06:16:57;3.84;87.10
79016;DHT22;72726;44.842;37.556;2023-11-21T06:17:58;3.84;87.14
79016;DHT22;72726;44.842;37.556;2023-11-21T06:19:00;3.86;87.06
79016;DHT22;72726;44.842;37.556;2023-11-21T06:20:08;3.86;87.12
79016;DHT22;72726;44.842;37.556;2023-11-21T06:21:14;3.87;87.11
79016;DHT22;72726;44.842;37.556;2023-11-21T06:22:17;3.86;87.05
79016;DHT22;72726;44.842;37.556;2023-11-21T06:23:18;3.86;87.17
79016;DHT22;72726;44.842;37.556;2023-11-21T06:24:20;3.87;87.19
79016;DHT22;72726;44.842;37.556;2023-11-21T06:25:22;3.87;86.93
79016;DHT22;72726;44.842;37.556;2023-11-21T06:26:23;3.87;87.20
79016;DHT22;72726;44.842;37.556;2023-11-21T06:27:26;3.90;87.08
79016;DHT22;72726;44.842;37.556;2023-11-21T06:28:27;3.93;86.99
79016;DHT22;72726;44.842;37.556;2023-11-21T06:29:29;3.90;86.97
79016;DHT22;72726;44.842;37.556;2023-11-21T06:30:30;3.91;86.81